Time;durP1;ratioP1;P1;durP2;ratioP2;P2;SDS_P1;SDS_P2;PMS_P1;PMS_P2;Temp;Humidity;BMP_temperature;BMP_pressure;BME280_temperature;BME280_humidity;BME280_pressure;Samples;Min_cycle;Max_cycle;Signal;HPM_P1;HPM_P2
2021/03/15 00:02:16;;;;;;;3.67;1.87;;;;;;;5.68;100.00;97885.91;4986316;28;20275;-68
2021/03/15 00:04:42;;;;;;;6.07;2.43;;;;;;;5.58;100.00;97891.38;4985618;28;20561;-68
2021/03/15 00:07:10;;;;;;;6.27;2.10;;;;;;;5.45;100.00;97888.47;4983039;28;20757;-69
2021/03/15 00:09:37;;;;;;;4.57;2.07;;;;;;;5.44;100.00;97891.28;4997589;28;20679;-68
2021/03/15 00:12:04;;;;;;;4.17;2.33;;;;;;;5.42;100.00;97886.16;4989897;28;20220;-68
2021/03/15 00:14:31;;;;;;;4.10;1.90;;;;;;;5.54;100.00;97890.06;4987767;28;20204;-68
2021/03/15 00:16:58;;;;;;;2.97;2.07;;;;;;;5.46;100.00;97882.19;4986538;28;20208;-68
2021/03/15 00:19:24;;;;;;;5.00;2.23;;;;;;;5.39;100.00;97889.13;4991049;28;20681;-68
2021/03/15 00:21:51;;;;;;;6.97;2.07;;;;;;;5.35;100.00;97881.72;4983101;28;20246;-69
2021/03/15 00:24:19;;;;;;;3.20;2.03;;;;;;;5.40;100.00;97874.94;4992000;28;20574;-68
2021/03/15 00:26:46;;;;;;;4.00;2.10;;;;;;;5.20;100.00;97868.41;4986353;28;20259;-68
2021/03/15 00:29:13;;;;;;;5.20;2.57;;;;;;;5.28;100.00;97871.00;4987262;28;20232;-68
2021/03/15 00:31:40;;;;;;;4.27;2.37;;;;;;;5.15;100.00;97872.53;4988304;28;20231;-68
2021/03/15 00:34:06;;;;;;;3.67;2.30;;;;;;;5.23;100.00;97873.31;4987436;28;20212;-68
2021/03/15 00:36:33;;;;;;;5.43;2.87;;;;;;;5.18;100.00;97869.56;4990117;28;20572;-68
2021/03/15 00:39:00;;;;;;;3.50;1.97;;;;;;;5.07;100.00;97865.47;4991770;28;20204;-68
2021/03/15 00:41:28;;;;;;;5.83;2.23;;;;;;;5.09;100.00;97868.78;4991704;28;20232;-69
2021/03/15 00:43:54;;;;;;;6.60;2.20;;;;;;;5.11;100.00;97863.28;4988182;28;20592;-69
2021/03/15 00:46:21;;;;;;;3.87;2.50;;;;;;;5.24;100.00;97869.69;4987673;28;20258;-68
2021/03/15 00:48:48;;;;;;;2.93;1.90;;;;;;;5.08;100.00;97861.00;4988139;28;20224;-68
2021/03/15 00:51:15;;;;;;;4.53;2.53;;;;;;;5.14;100.00;97855.03;4981513;28;20236;-68
2021/03/15 00:53:41;;;;;;;4.13;2.27;;;;;;;5.00;100.00;97853.91;4987699;28;20203;-68
2021/03/15 00:56:08;;;;;;;4.53;2.30;;;;;;;4.97;100.00;97856.88;4986425;28;20273;-68
2021/03/15 00:58:36;;;;;;;2.63;2.17;;;;;;;5.01;100.00;97855.56;4988822;28;20222;-69
2021/03/15 01:01:03;;;;;;;5.00;2.47;;;;;;;4.98;100.00;97858.53;4988569;28;20223;-69
2021/03/15 01:03:30;;;;;;;3.70;2.27;;;;;;;5.10;100.00;97848.41;4983446;28;20216;-69
2021/03/15 01:05:58;;;;;;;7.70;3.03;;;;;;;4.92;100.00;97853.13;4988186;28;20839;-68
2021/03/15 01:08:24;;;;;;;6.20;2.30;;;;;;;4.91;100.00;97852.28;4988576;28;20224;-69
2021/03/15 01:10:52;;;;;;;4.63;2.20;;;;;;;4.91;100.00;97849.63;4987925;28;20219;-68
2021/03/15 01:13:19;;;;;;;3.80;2.20;;;;;;;4.89;100.00;97859.56;4990930;28;20200;-69
2021/03/15 01:15:46;;;;;;;4.70;2.20;;;;;;;4.77;100.00;97855.63;4984918;28;20196;-69
2021/03/15 01:18:13;;;;;;;6.00;2.30;;;;;;;4.93;100.00;97852.13;4989036;28;20949;-67
2021/03/15 01:20:40;;;;;;;5.87;2.77;;;;;;;4.76;100.00;97850.50;4991578;28;20239;-68
2021/03/15 01:23:07;;;;;;;6.33;2.40;;;;;;;4.79;100.00;97844.88;4991035;28;20200;-68
2021/03/15 01:25:36;;;;;;;8.10;3.00;;;;;;;4.72;100.00;97854.50;4990232;28;20208;-69
2021/03/15 01:28:05;;;;;;;7.73;2.40;;;;;;;4.72;100.00;97855.28;4985243;28;20242;-68
2021/03/15 01:30:32;;;;;;;7.67;3.10;;;;;;;4.58;100.00;97855.97;4993701;28;20229;-68
2021/03/15 01:33:01;;;;;;;9.40;3.10;;;;;;;4.70;100.00;97853.81;4992454;28;20211;-68
2021/03/15 01:35:28;;;;;;;7.00;2.60;;;;;;;4.72;100.00;97857.13;4988161;28;20215;-69
2021/03/15 01:37:55;;;;;;;5.70;2.73;;;;;;;4.54;100.00;97849.41;4986951;28;20210;-69
2021/03/15 01:40:22;;;;;;;8.17;3.13;;;;;;;4.62;100.00;97844.09;4989926;28;20286;-68
2021/03/15 01:42:49;;;;;;;6.07;2.80;;;;;;;4.51;100.00;97838.31;4988611;28;20211;-68
2021/03/15 01:45:16;;;;;;;6.53;2.93;;;;;;;4.58;100.00;97845.41;4988780;28;20215;-69
2021/03/15 01:47:44;;;;;;;8.00;2.67;;;;;;;4.56;100.00;97836.00;4990423;28;20206;-67
2021/03/15 01:50:14;;;;;;;6.77;2.70;;;;;;;4.67;100.00;97823.25;4991044;28;21022;-70
2021/03/15 01:52:42;;;;;;;6.03;2.80;;;;;;;4.46;100.00;97827.41;4987018;28;20208;-68
2021/03/15 01:55:11;;;;;;;6.57;3.03;;;;;;;4.43;100.00;97825.94;4990781;28;20219;-68
2021/03/15 01:57:38;;;;;;;4.97;2.70;;;;;;;4.38;100.00;97824.81;4990339;28;20208;-68
2021/03/15 02:00:07;;;;;;;5.77;2.93;;;;;;;4.48;100.00;97818.34;4991461;28;20203;-68
2021/03/15 02:02:37;;;;;;;5.43;2.67;;;;;;;4.44;100.00;97813.56;4988776;28;20214;-68
2021/03/15 02:05:04;;;;;;;5.40;2.63;;;;;;;4.25;100.00;97814.75;4985800;28;20569;-69
2021/03/15 02:07:32;;;;;;;6.20;2.50;;;;;;;4.34;100.00;97816.41;4982289;28;20212;-68
2021/03/15 02:09:59;;;;;;;8.40;3.10;;;;;;;4.35;100.00;97799.53;4996775;28;20319;-69
2021/03/15 02:12:51;;;;;;;6.00;2.73;;;;;;;4.15;100.00;97792.97;4984619;28;20208;-68
2021/03/15 02:15:21;;;;;;;4.97;2.67;;;;;;;4.12;100.00;97788.00;4970690;28;20212;-69
2021/03/15 02:17:59;;;;;;;4.07;2.53;;;;;;;4.14;100.00;97786.03;4993968;28;20214;-70
2021/03/15 02:21:17;;;;;;;6.57;2.57;;;;;;;4.32;100.00;97776.09;4988498;28;20228;-70
2021/03/15 02:24:00;;;;;;;5.33;2.27;;;;;;;4.26;100.00;97779.41;4945683;28;20645;-69
2021/03/15 02:27:01;;;;;;;3.90;2.57;;;;;;;4.24;100.00;97770.84;4992140;28;20219;-68
2021/03/15 02:29:53;;;;;;;4.47;2.30;;;;;;;4.27;100.00;97764.41;4991792;28;20228;-68
2021/03/15 02:32:51;;;;;;;6.70;3.10;;;;;;;4.20;100.00;97763.41;4987750;28;20212;-68
2021/03/15 02:35:19;;;;;;;6.60;3.00;;;;;;;4.31;100.00;97758.59;4990027;28;20200;-67
2021/03/15 02:37:48;;;;;;;5.53;2.83;;;;;;;4.36;100.00;97761.56;4987431;28;20207;-68
2021/03/15 02:40:20;;;;;;;5.23;2.50;;;;;;;4.51;100.00;97757.25;4992267;28;20319;-68
2021/03/15 02:42:49;;;;;;;6.20;2.77;;;;;;;4.57;100.00;97750.47;4987058;28;20669;-69
2021/03/15 02:45:16;;;;;;;6.40;3.07;;;;;;;4.70;100.00;97748.94;4990245;28;20204;-68
2021/03/15 02:47:45;;;;;;;5.83;3.03;;;;;;;4.72;100.00;97746.13;4990443;28;20672;-68
2021/03/15 02:50:12;;;;;;;9.33;2.80;;;;;;;4.77;100.00;97731.38;4988470;28;20222;-68
2021/03/15 02:52:44;;;;;;;6.87;3.37;;;;;;;4.67;100.00;97720.19;4991624;28;20205;-68
2021/03/15 02:55:13;;;;;;;4.77;2.80;;;;;;;4.75;100.00;97721.97;4992428;28;20212;-68
2021/03/15 02:57:40;;;;;;;6.53;2.50;;;;;;;4.75;100.00;97725.47;4991272;28;20222;-68
2021/03/15 03:00:08;;;;;;;6.00;2.67;;;;;;;4.75;100.00;97724.63;4991337;28;20719;-68
2021/03/15 03:02:36;;;;;;;8.57;2.80;;;;;;;4.60;100.00;97721.88;4996925;28;20219;-68
2021/03/15 03:05:07;;;;;;;5.23;2.77;;;;;;;4.71;100.00;97721.50;4990307;28;20207;-68
2021/03/15 03:07:34;;;;;;;5.30;2.33;;;;;;;4.63;100.00;97718.88;4995797;28;20210;-68
2021/03/15 03:10:04;;;;;;;8.63;2.33;;;;;;;4.80;100.00;97709.06;4991952;28;20235;-67
2021/03/15 03:12:31;;;;;;;5.30;2.33;;;;;;;4.70;100.00;97704.00;4990655;28;20298;-68
2021/03/15 03:14:59;;;;;;;6.83;2.70;;;;;;;4.62;100.00;97701.38;4990722;28;20695;-69
2021/03/15 03:17:27;;;;;;;6.87;2.63;;;;;;;4.61;100.00;97704.19;4990825;28;20206;-69
2021/03/15 03:19:54;;;;;;;6.67;2.53;;;;;;;4.66;100.00;97694.75;4989434;28;20215;-69
2021/03/15 03:22:21;;;;;;;8.27;3.10;;;;;;;4.68;100.00;97695.41;4991712;28;20219;-69
2021/03/15 03:24:48;;;;;;;7.00;2.63;;;;;;;4.63;100.00;97689.81;4991068;28;20204;-69
2021/03/15 03:27:16;;;;;;;8.50;2.90;;;;;;;4.67;100.00;97691.13;4989250;28;20222;-69
2021/03/15 03:29:45;;;;;;;4.60;2.60;;;;;;;4.62;100.00;97690.81;4992832;28;20746;-68
2021/03/15 03:32:12;;;;;;;8.13;2.73;;;;;;;4.64;100.00;97683.56;4995005;28;20223;-69
2021/03/15 03:34:41;;;;;;;6.97;2.60;;;;;;;4.76;100.00;97684.81;4993975;28;20203;-68
2021/03/15 03:37:08;;;;;;;7.10;3.37;;;;;;;4.87;100.00;97683.59;4984613;28;20204;-68
2021/03/15 03:39:35;;;;;;;3.83;2.60;;;;;;;4.98;100.00;97670.00;4985217;28;20215;-68
2021/03/15 03:42:02;;;;;;;6.47;2.90;;;;;;;5.05;100.00;97671.78;4985134;28;20223;-68
2021/03/15 03:44:30;;;;;;;5.47;2.73;;;;;;;5.10;100.00;97668.59;4989709;28;20203;-68
2021/03/15 03:46:56;;;;;;;5.83;2.40;;;;;;;5.08;100.00;97671.41;4986349;28;20213;-68
2021/03/15 03:49:23;;;;;;;4.70;2.33;;;;;;;5.23;100.00;97672.28;4980863;28;20253;-68
2021/03/15 03:51:54;;;;;;;8.07;3.03;;;;;;;5.23;100.00;97669.66;4986636;28;20301;-68
2021/03/15 03:54:26;;;;;;;8.53;2.90;;;;;;;5.37;100.00;97673.34;4986316;28;20270;-68
2021/03/15 03:56:57;;;;;;;6.13;2.70;;;;;;;5.43;100.00;97673.47;4983629;28;20210;-68
2021/03/15 03:59:27;;;;;;;4.47;2.23;;;;;;;5.43;100.00;97673.47;4990097;28;20626;-67
2021/03/15 04:01:58;;;;;;;6.90;2.97;;;;;;;5.37;100.00;97670.69;4989371;28;20251;-68
2021/03/15 04:04:26;;;;;;;8.47;2.37;;;;;;;5.50;100.00;97682.38;4990970;28;20212;-67
2021/03/15 04:06:53;;;;;;;7.83;2.70;;;;;;;5.52;100.00;97675.06;4990506;28;20206;-68
2021/03/15 04:09:26;;;;;;;4.53;1.93;;;;;;;5.62;100.00;97677.44;4993776;28;20232;-67
2021/03/15 04:11:57;;;;;;;5.50;3.13;;;;;;;5.58;100.00;97668.25;4990601;28;20227;-67
2021/03/15 04:14:26;;;;;;;6.60;2.30;;;;;;;5.67;100.00;97677.75;4988955;28;20209;-67
2021/03/15 04:16:54;;;;;;;7.23;2.50;;;;;;;5.72;100.00;97665.63;4987809;28;20207;-67
2021/03/15 04:19:25;;;;;;;3.00;1.90;;;;;;;5.56;100.00;97673.72;4987750;28;20696;-67
2021/03/15 04:21:56;;;;;;;4.77;2.50;;;;;;;5.48;100.00;97662.38;4985232;28;20228;-68
2021/03/15 04:24:23;;;;;;;5.20;1.93;;;;;;;5.53;100.00;97666.13;4986902;28;20217;-68
2021/03/15 04:26:50;;;;;;;3.70;2.10;;;;;;;5.21;100.00;97653.16;4986370;28;20210;-68
2021/03/15 04:29:17;;;;;;;5.53;2.23;;;;;;;5.40;100.00;97649.19;4990488;28;20348;-68
2021/03/15 04:31:44;;;;;;;4.97;2.37;;;;;;;5.19;100.00;97644.53;4989455;28;20227;-68
2021/03/15 04:34:12;;;;;;;4.17;2.17;;;;;;;5.16;100.00;97650.19;4989670;28;20265;-68
2021/03/15 04:36:39;;;;;;;5.57;2.47;;;;;;;5.42;100.00;97645.38;4986101;28;20204;-68
2021/03/15 04:39:06;;;;;;;4.50;2.17;;;;;;;5.32;100.00;97639.50;4989120;28;20572;-68
2021/03/15 04:41:33;;;;;;;4.23;2.10;;;;;;;5.49;100.00;97633.06;4987888;28;21067;-68
2021/03/15 04:44:00;;;;;;;5.07;1.87;;;;;;;5.54;100.00;97625.41;4989294;28;20581;-68
2021/03/15 04:46:28;;;;;;;3.80;2.10;;;;;;;5.60;100.00;97626.53;4990416;28;20211;-68
2021/03/15 04:48:55;;;;;;;3.43;2.03;;;;;;;5.51;100.00;97624.94;4986768;28;20728;-68
2021/03/15 04:51:22;;;;;;;2.43;1.80;;;;;;;5.65;100.00;97625.00;4991210;28;20652;-68
2021/03/15 04:53:49;;;;;;;4.13;2.17;;;;;;;5.49;100.00;97614.53;4988000;28;20555;-68
2021/03/15 04:56:17;;;;;;;5.10;2.30;;;;;;;5.70;100.00;97617.34;4987801;28;20679;-68
2021/03/15 04:58:48;;;;;;;4.00;2.37;;;;;;;5.68;100.00;97607.94;4982206;28;20545;-68
2021/03/15 05:01:15;;;;;;;4.90;2.00;;;;;;;5.52;100.00;97613.34;4982878;28;20719;-68
2021/03/15 05:03:43;;;;;;;3.33;1.97;;;;;;;5.64;100.00;97620.69;4988320;28;20208;-68
2021/03/15 05:06:10;;;;;;;5.20;1.83;;;;;;;5.73;100.00;97609.03;4988195;28;20212;-68
2021/03/15 05:08:41;;;;;;;5.27;3.37;;;;;;;5.63;100.00;97605.81;4990953;28;20227;-68
2021/03/15 05:11:09;;;;;;;3.83;2.17;;;;;;;5.52;100.00;97603.63;4987051;28;20239;-68
2021/03/15 05:13:37;;;;;;;6.30;2.20;;;;;;;5.56;100.00;97599.63;4985178;28;20576;-68
2021/03/15 05:16:05;;;;;;;4.20;2.30;;;;;;;5.52;100.00;97600.13;4984323;28;20211;-68
2021/03/15 05:18:32;;;;;;;2.70;1.87;;;;;;;5.39;100.00;97599.94;4984490;28;20208;-68
2021/03/15 05:20:59;;;;;;;2.53;2.23;;;;;;;5.56;100.00;97596.97;4982300;28;20228;-69
2021/03/15 05:23:26;;;;;;;6.00;2.27;;;;;;;5.52;100.00;97592.19;4983709;28;20582;-68
2021/03/15 05:25:55;;;;;;;8.07;2.10;;;;;;;5.76;100.00;97589.31;4987941;28;20849;-69
2021/03/15 05:28:22;;;;;;;4.17;1.97;;;;;;;5.56;100.00;97585.53;4987589;28;20230;-69
2021/03/15 05:30:51;;;;;;;4.07;2.20;;;;;;;5.16;100.00;97578.78;4988523;28;20278;-68
2021/03/15 05:33:19;;;;;;;3.50;1.93;;;;;;;5.42;100.00;97575.75;4986466;28;20219;-69
2021/03/15 05:35:50;;;;;;;5.17;2.37;;;;;;;5.31;100.00;97571.72;4991081;28;20208;-69
2021/03/15 05:38:17;;;;;;;5.53;2.43;;;;;;;5.65;100.00;97572.06;4990552;28;20216;-69
2021/03/15 05:40:45;;;;;;;4.10;2.27;;;;;;;5.55;100.00;97568.03;4988320;28;20592;-68
2021/03/15 05:43:29;;;;;;;7.50;2.30;;;;;;;5.68;100.00;97568.25;4983887;28;20208;-69
2021/03/15 05:46:48;;;;;;;4.30;2.43;;;;;;;5.43;100.00;97562.34;4985183;28;20196;-68
2021/03/15 05:49:48;;;;;;;3.50;2.17;;;;;;;5.45;100.00;97552.41;4989982;28;20239;-68
2021/03/15 05:52:27;;;;;;;3.77;2.50;;;;;;;5.45;100.00;97551.59;4994555;28;20229;-74
2021/03/15 05:55:39;;;;;;;5.27;2.20;;;;;;;5.67;100.00;97540.94;4989952;28;20686;-77
2021/03/15 05:58:50;;;;;;;3.57;1.80;;;;;;;5.66;100.00;97534.00;4992972;28;20203;-77
2021/03/15 06:01:45;;;;;;;3.57;2.13;;;;;;;5.68;100.00;97537.28;4996059;28;20262;-71
2021/03/15 06:04:38;;;;;;;5.40;2.13;;;;;;;5.71;100.00;97531.63;4992541;28;20219;-69
2021/03/15 06:07:08;;;;;;;3.03;1.90;;;;;;;5.43;100.00;97530.59;4990508;28;20353;-70
2021/03/15 06:09:42;;;;;;;2.93;2.17;;;;;;;5.57;100.00;97524.50;4994246;28;20226;-70
2021/03/15 06:12:24;;;;;;;2.87;2.00;;;;;;;5.56;100.00;97520.22;4990424;28;20227;-70
2021/03/15 06:14:54;;;;;;;4.13;1.93;;;;;;;5.58;100.00;97525.34;4988611;28;20207;-71
2021/03/15 06:17:21;;;;;;;6.27;2.00;;;;;;;5.26;100.00;97525.63;4993118;28;20212;-77
2021/03/15 06:19:48;;;;;;;5.23;2.30;;;;;;;5.45;100.00;97519.84;4996446;28;20223;-79
2021/03/15 06:22:16;;;;;;;3.63;2.20;;;;;;;5.18;100.00;97510.66;4997098;28;20246;-78
2021/03/15 06:24:44;;;;;;;2.93;2.17;;;;;;;5.35;100.00;97509.53;4995818;28;20207;-70
2021/03/15 06:27:11;;;;;;;4.40;2.03;;;;;;;5.35;100.00;97501.59;5000682;28;20211;-71
2021/03/15 06:29:37;;;;;;;6.70;2.50;;;;;;;5.60;100.00;97496.84;4992409;28;20224;-71
2021/03/15 06:32:08;;;;;;;3.70;2.27;;;;;;;5.26;100.00;97499.19;4994031;28;20628;-71
2021/03/15 06:34:36;;;;;;;4.70;2.13;;;;;;;5.41;100.00;97494.72;4995329;28;20906;-73
2021/03/15 06:37:03;;;;;;;3.57;2.03;;;;;;;5.54;100.00;97490.44;4994044;28;20212;-71
2021/03/15 06:39:30;;;;;;;6.77;2.00;;;;;;;5.52;100.00;97484.53;4991267;28;20736;-73
2021/03/15 06:41:58;;;;;;;3.20;1.90;;;;;;;5.59;100.00;97480.13;4997149;28;20255;-72
2021/03/15 06:44:25;;;;;;;4.70;2.00;;;;;;;5.38;100.00;97487.19;4996966;28;20637;-71
2021/03/15 06:46:52;;;;;;;2.43;1.43;;;;;;;5.43;100.00;97482.16;5000876;28;20293;-74
2021/03/15 06:49:20;;;;;;;4.10;2.03;;;;;;;5.57;100.00;97481.31;4995059;28;20735;-72
2021/03/15 06:52:04;;;;;;;2.33;1.53;;;;;;;5.31;100.00;97476.50;4995040;28;20236;-76
2021/03/15 06:54:30;;;;;;;2.43;1.60;;;;;;;5.46;100.00;97474.69;4990484;28;20204;-73
2021/03/15 06:57:14;;;;;;;1.90;1.67;;;;;;;5.54;100.00;97474.56;5002143;28;20276;-71
2021/03/15 06:59:49;;;;;;;2.87;1.70;;;;;;;5.64;100.00;97464.53;4989418;28;20676;-70
2021/03/15 07:02:24;;;;;;;3.43;1.97;;;;;;;5.81;100.00;97460.72;4986410;28;20228;-72
2021/03/15 07:04:53;;;;;;;3.23;1.63;;;;;;;5.77;100.00;97472.66;4993771;28;20657;-73
2021/03/15 07:07:25;;;;;;;4.20;1.83;;;;;;;5.81;100.00;97473.97;4992681;28;20228;-73
2021/03/15 07:09:52;;;;;;;3.70;1.70;;;;;;;5.70;100.00;97471.75;4989972;28;20585;-71
2021/03/15 07:12:20;;;;;;;3.67;1.57;;;;;;;5.81;100.00;97463.38;4992064;28;20228;-74
2021/03/15 07:14:47;;;;;;;2.53;1.70;;;;;;;6.07;100.00;97469.00;4986541;28;20207;-73
2021/03/15 07:17:27;;;;;;;4.03;1.70;;;;;;;6.38;100.00;97458.13;4994249;28;20214;-73
2021/03/15 07:19:55;;;;;;;2.53;1.60;;;;;;;6.42;100.00;97459.38;4993847;28;20286;-75
2021/03/15 07:22:24;;;;;;;1.97;1.40;;;;;;;6.18;100.00;97473.81;4991326;28;20201;-70
2021/03/15 07:25:11;;;;;;;1.83;1.27;;;;;;;6.40;100.00;97464.88;4990899;28;20219;-78
2021/03/15 07:27:39;;;;;;;4.03;1.30;;;;;;;6.29;100.00;97469.88;4989479;28;20666;-70
2021/03/15 07:30:42;;;;;;;1.37;1.20;;;;;;;5.94;100.00;97478.63;4987712;28;20285;-70
2021/03/15 07:33:20;;;;;;;3.70;1.40;;;;;;;5.84;100.00;97489.47;4981209;28;20216;-70
2021/03/15 07:35:50;;;;;;;0.83;0.80;;;;;;;5.28;100.00;97487.41;4998694;28;20234;-70
2021/03/15 07:38:17;;;;;;;2.13;0.97;;;;;;;5.05;100.00;97491.13;5014760;28;20286;-69
2021/03/15 07:40:46;;;;;;;1.37;1.13;;;;;;;5.28;100.00;97486.63;5012802;28;20223;-81
2021/03/15 07:43:14;;;;;;;1.47;0.70;;;;;;;5.14;100.00;97480.28;5009315;28;20268;-70
2021/03/15 07:45:43;;;;;;;1.27;1.00;;;;;;;5.10;100.00;97468.44;4987060;28;20700;-71
2021/03/15 07:48:16;;;;;;;0.97;0.80;;;;;;;5.08;100.00;97470.41;4994081;28;20204;-73
2021/03/15 07:50:54;;;;;;;1.10;0.67;;;;;;;5.31;100.00;97463.25;4994612;28;20234;-74
2021/03/15 07:53:37;;;;;;;1.07;0.90;;;;;;;5.17;100.00;97464.06;4990234;28;20252;-73
2021/03/15 07:56:06;;;;;;;1.20;0.90;;;;;;;5.16;100.00;97465.06;4989483;28;20187;-73
2021/03/15 07:58:33;;;;;;;1.20;0.80;;;;;;;5.27;100.00;97466.44;4993404;28;20686;-73
2021/03/15 08:01:02;;;;;;;2.03;0.80;;;;;;;5.34;100.00;97465.53;4994347;28;20306;-75
2021/03/15 08:03:29;;;;;;;1.00;0.73;;;;;;;5.25;100.00;97465.81;4995886;28;20218;-75
2021/03/15 08:05:58;;;;;;;1.10;0.77;;;;;;;5.30;100.00;97466.09;4999637;28;20680;-76
2021/03/15 08:08:26;;;;;;;1.60;1.00;;;;;;;5.46;100.00;97464.09;4994047;28;20209;-75
2021/03/15 08:10:53;;;;;;;1.73;0.77;;;;;;;5.51;100.00;97460.88;4993618;28;20229;-75
2021/03/15 08:13:22;;;;;;;0.97;0.60;;;;;;;5.74;100.00;97469.56;4997475;28;20567;-73
2021/03/15 08:15:52;;;;;;;2.30;0.80;;;;;;;6.10;100.00;97476.56;4988762;28;20287;-73
2021/03/15 08:18:24;;;;;;;1.10;0.80;;;;;;;6.09;100.00;97476.75;4993475;28;20572;-73
2021/03/15 08:20:52;;;;;;;1.10;0.80;;;;;;;6.16;100.00;97478.47;5000045;28;20232;-73
2021/03/15 08:23:20;;;;;;;0.90;0.70;;;;;;;6.38;100.00;97472.19;4993482;28;20219;-73
2021/03/15 08:25:49;;;;;;;1.67;1.10;;;;;;;6.38;100.00;97476.66;4993629;28;20215;-74
2021/03/15 08:28:16;;;;;;;1.43;0.90;;;;;;;6.52;100.00;97467.84;5001024;28;20213;-73
2021/03/15 08:30:52;;;;;;;1.60;1.10;;;;;;;6.81;100.00;97465.06;4986210;28;20304;-73
2021/03/15 08:33:19;;;;;;;1.30;1.00;;;;;;;7.19;100.00;97461.94;4993336;28;20662;-73
2021/03/15 08:35:46;;;;;;;1.63;0.90;;;;;;;6.86;100.00;97476.75;4993757;28;20202;-72
2021/03/15 08:38:16;;;;;;;2.40;1.20;;;;;;;6.88;100.00;97482.69;5000265;28;20279;-72
2021/03/15 08:41:01;;;;;;;1.60;1.07;;;;;;;7.02;100.00;97476.50;4991559;28;20221;-72
2021/03/15 08:43:43;;;;;;;2.73;1.10;;;;;;;6.73;100.00;97483.75;4992803;28;20217;-72
2021/03/15 08:46:16;;;;;;;1.07;0.87;;;;;;;6.85;100.00;97483.06;4993406;28;20197;-74
2021/03/15 08:48:54;;;;;;;1.20;0.87;;;;;;;6.72;100.00;97490.06;4985951;28;20217;-73
2021/03/15 08:51:47;;;;;;;0.97;0.80;;;;;;;6.66;100.00;97491.63;4992876;28;20236;-74
2021/03/15 08:54:37;;;;;;;3.37;0.80;;;;;;;6.70;100.00;97498.22;4992839;28;20612;-73
2021/03/15 08:57:06;;;;;;;1.50;1.00;;;;;;;6.45;100.00;97496.13;4985082;28;20216;-75
2021/03/15 08:59:33;;;;;;;1.03;0.77;;;;;;;6.82;100.00;97491.41;4985100;28;20214;-74
2021/03/15 09:02:04;;;;;;;1.83;0.70;;;;;;;6.60;100.00;97491.59;4992640;28;20756;-73
2021/03/15 09:04:45;;;;;;;0.80;0.63;;;;;;;6.67;100.00;97498.59;4993266;28;20292;-73
2021/03/15 09:07:32;;;;;;;1.03;0.70;;;;;;;6.68;100.00;97494.94;4990053;28;20207;-73
2021/03/15 09:10:18;;;;;;;3.53;0.80;;;;;;;6.59;100.00;97504.03;4987751;28;20348;-76
2021/03/15 09:13:33;;;;;;;1.80;0.90;;;;;;;6.79;100.00;97505.03;4993069;28;20208;-74
2021/03/15 09:16:08;;;;;;;0.57;0.47;;;;;;;6.86;100.00;97507.75;4992825;28;20228;-73
2021/03/15 09:18:51;;;;;;;0.60;0.40;;;;;;;6.93;100.00;97508.63;4993011;28;20218;-71
2021/03/15 09:21:49;;;;;;;0.97;0.60;;;;;;;6.77;100.00;97522.16;4992573;28;20234;-74
2021/03/15 09:24:50;;;;;;;0.47;0.47;;;;;;;6.88;100.00;97517.16;4992475;28;20638;-73
2021/03/15 09:27:29;;;;;;;0.97;0.57;;;;;;;6.80;100.00;97522.59;4993188;28;20284;-75
2021/03/15 09:29:58;;;;;;;3.90;0.60;;;;;;;6.82;100.00;97520.59;4992959;28;20222;-74
2021/03/15 09:32:33;;;;;;;0.80;0.70;;;;;;;6.77;100.00;97520.34;4994917;28;20304;-74
2021/03/15 09:35:02;;;;;;;0.43;0.40;;;;;;;7.06;100.00;97516.72;4998258;28;20198;-74
2021/03/15 09:37:29;;;;;;;2.00;0.60;;;;;;;7.16;100.00;97525.97;4993030;28;20566;-74
2021/03/15 09:39:57;;;;;;;0.53;0.53;;;;;;;7.16;100.00;97522.53;4996107;28;20207;-73
2021/03/15 09:42:24;;;;;;;1.07;0.60;;;;;;;7.16;100.00;97523.31;4992629;28;20208;-73
2021/03/15 09:44:51;;;;;;;0.70;0.57;;;;;;;7.33;100.00;97518.56;4992081;28;20216;-73
2021/03/15 09:47:25;;;;;;;1.23;0.60;;;;;;;7.32;100.00;97519.59;4992723;28;20696;-74
2021/03/15 09:49:52;;;;;;;2.90;0.90;;;;;;;7.28;100.00;97527.13;4993129;28;20218;-73
2021/03/15 09:52:21;;;;;;;0.73;0.50;;;;;;;7.25;100.00;97529.34;4991356;28;20300;-73
2021/03/15 09:54:50;;;;;;;1.40;0.77;;;;;;;7.51;100.00;97521.59;4992549;28;20206;-74
2021/03/15 09:57:18;;;;;;;0.93;0.70;;;;;;;7.36;100.00;97515.53;4992308;28;20662;-73
2021/03/15 09:59:45;;;;;;;0.87;0.70;;;;;;;7.75;100.00;97513.13;4992201;28;21029;-74
2021/03/15 10:02:14;;;;;;;2.90;1.20;;;;;;;7.82;100.00;97512.16;4989736;28;20360;-73
2021/03/15 10:04:43;;;;;;;1.37;0.90;;;;;;;7.81;100.00;97515.84;4984489;28;20203;-75
2021/03/15 10:07:11;;;;;;;1.20;0.87;;;;;;;7.81;100.00;97513.19;4992379;28;20724;-75
2021/03/15 10:09:39;;;;;;;1.30;1.10;;;;;;;7.86;100.00;97525.91;4992163;28;20222;-75
2021/03/15 10:12:07;;;;;;;2.33;1.40;;;;;;;7.84;100.00;97526.09;4984638;28;20241;-72
2021/03/15 10:14:34;;;;;;;2.03;1.30;;;;;;;7.75;100.00;97527.25;4991877;28;20675;-72
2021/03/15 10:17:03;;;;;;;1.67;1.10;;;;;;;7.72;100.00;97532.94;4992602;28;20645;-74
2021/03/15 10:19:31;;;;;;;1.77;1.03;;;;;;;7.91;100.00;97521.63;4992594;28;20214;-75
2021/03/15 10:22:11;;;;;;;1.07;0.93;;;;;;;7.69;100.00;97527.19;4992523;28;20257;-74
2021/03/15 10:24:40;;;;;;;0.90;0.77;;;;;;;7.73;100.00;97529.28;4992273;28;20199;-72
2021/03/15 10:27:08;;;;;;;1.30;1.20;;;;;;;7.62;100.00;97531.66;4992318;28;20674;-75
2021/03/15 10:29:35;;;;;;;3.00;1.10;;;;;;;7.58;100.00;97535.72;4991975;28;20225;-72
2021/03/15 10:32:03;;;;;;;1.80;1.20;;;;;;;7.76;100.00;97539.50;4985897;28;20570;-74
2021/03/15 10:34:30;;;;;;;2.83;1.30;;;;;;;7.86;100.00;97547.94;4992207;28;20203;-72
2021/03/15 10:36:57;;;;;;;1.73;1.10;;;;;;;7.94;100.00;97545.16;5001289;28;20209;-73
2021/03/15 10:39:26;;;;;;;1.40;1.00;;;;;;;8.17;100.00;97556.31;4995524;28;20218;-74
2021/03/15 10:41:53;;;;;;;1.33;1.00;;;;;;;7.91;100.00;97547.38;4995100;28;20285;-74
2021/03/15 10:44:21;;;;;;;1.57;1.20;;;;;;;8.05;100.00;97539.28;4996222;28;20297;-72
2021/03/15 10:46:50;;;;;;;1.73;1.00;;;;;;;8.27;100.00;97553.34;4995619;28;20543;-73
2021/03/15 10:49:22;;;;;;;1.10;0.90;;;;;;;8.29;100.00;97554.78;4992158;28;20241;-74
2021/03/15 10:51:51;;;;;;;2.03;1.00;;;;;;;8.13;100.00;97557.72;4990995;28;20300;-75
2021/03/15 10:54:30;;;;;;;1.20;1.00;;;;;;;8.65;100.00;97549.19;4995532;28;20211;-75
2021/03/15 10:57:13;;;;;;;9.30;1.40;;;;;;;8.98;100.00;97548.25;4994745;28;20206;-75
2021/03/15 10:59:40;;;;;;;2.77;1.00;;;;;;;9.28;100.00;97562.03;4987409;28;20188;-75
2021/03/15 11:02:07;;;;;;;1.50;1.27;;;;;;;9.36;100.00;97559.97;4995316;28;20876;-74
2021/03/15 11:04:35;;;;;;;1.10;0.93;;;;;;;8.93;100.00;97561.31;4987232;28;20242;-72
2021/03/15 11:07:17;;;;;;;2.20;1.20;;;;;;;8.72;100.00;97566.81;4995266;28;20200;-73
2021/03/15 11:10:00;;;;;;;1.77;1.00;;;;;;;8.25;100.00;97566.81;4987709;28;20212;-73
2021/03/15 11:12:39;;;;;;;2.90;1.03;;;;;;;8.43;100.00;97574.25;4992511;28;20210;-74
2021/03/15 11:15:11;;;;;;;1.07;0.90;;;;;;;8.35;100.00;97572.59;4995161;28;20584;-73
2021/03/15 11:17:38;;;;;;;1.20;0.90;;;;;;;8.92;100.00;97569.50;4987246;28;20199;-72
2021/03/15 11:20:06;;;;;;;0.73;0.60;;;;;;;8.80;100.00;97576.44;4995143;28;20204;-73
2021/03/15 11:22:50;;;;;;;1.00;0.80;;;;;;;8.62;100.00;97592.16;4994637;28;20212;-71
2021/03/15 11:25:19;;;;;;;1.90;0.80;;;;;;;8.84;100.00;97583.00;4994627;28;20637;-72
2021/03/15 11:27:50;;;;;;;1.03;0.77;;;;;;;8.87;100.00;97583.41;4994845;28;20673;-74
2021/03/15 11:30:21;;;;;;;1.70;0.90;;;;;;;8.98;100.00;97579.38;4994459;28;20696;-74
2021/03/15 11:32:48;;;;;;;1.57;1.10;;;;;;;9.39;100.00;97582.72;4994770;28;20204;-74
2021/03/15 11:35:21;;;;;;;1.10;0.93;;;;;;;9.41;100.00;97578.00;4997710;28;20200;-74
2021/03/15 11:37:49;;;;;;;1.43;1.00;;;;;;;9.65;100.00;97590.72;4994882;28;20196;-75
2021/03/15 11:40:28;;;;;;;1.27;1.03;;;;;;;9.55;100.00;97598.28;4998602;28;20221;-74
2021/03/15 11:42:55;;;;;;;1.90;1.00;;;;;;;9.50;100.00;97595.41;4993961;28;20196;-73
2021/03/15 11:45:23;;;;;;;1.23;1.10;;;;;;;9.24;100.00;97590.06;4994613;28;20545;-72
2021/03/15 11:47:50;;;;;;;1.80;0.80;;;;;;;8.50;100.00;97615.81;4993517;28;20210;-73
2021/03/15 11:50:17;;;;;;;1.27;1.00;;;;;;;8.76;100.00;97596.47;4994650;28;20278;-74
2021/03/15 11:52:44;;;;;;;0.97;0.83;;;;;;;9.24;100.00;97604.19;4989721;28;20208;-74
2021/03/15 11:55:12;;;;;;;1.50;1.00;;;;;;;8.85;100.00;97600.59;5004768;28;20219;-72